Time;durP1;ratioP1;P1;durP2;ratioP2;P2;SDS_P1;SDS_P2;PMS_P1;PMS_P2;Temp;Humidity;BMP_temperature;BMP_pressure;BME280_temperature;BME280_humidity;BME280_pressure;Samples;Min_cycle;Max_cycle;Signal;HPM_P1;HPM_P2
2023/11/23 00:00:58;;;;;;;4.30;3.65;;;;;;;;;;6154515;23;20107;-83
2023/11/23 00:03:25;;;;;;;4.45;4.03;;;;;;;;;;6154263;22;20017;-84
2023/11/23 00:05:53;;;;;;;3.83;3.53;;;;;;;;;;6154272;23;20032;-85
2023/11/23 00:08:20;;;;;;;4.75;3.78;;;;;;;;;;6154956;23;20025;-85
2023/11/23 00:10:49;;;;;;;4.28;3.88;;;;;;;;;;6154967;23;20029;-84
2023/11/23 00:13:16;;;;;;;7.30;4.22;;;;;;;;;;6180363;23;20450;-85
2023/11/23 00:15:44;;;;;;;4.32;3.90;;;;;;;;;;6154205;23;20025;-84
2023/11/23 00:18:13;;;;;;;5.38;3.72;;;;;;;;;;6180550;23;20025;-84
2023/11/23 00:20:41;;;;;;;4.72;4.13;;;;;;;;;;6154643;23;20017;-84
2023/11/23 00:23:08;;;;;;;4.63;4.10;;;;;;;;;;6180013;23;20029;-84
2023/11/23 00:25:35;;;;;;;4.57;3.65;;;;;;;;;;6153411;23;20025;-84
2023/11/23 00:28:03;;;;;;;4.93;4.00;;;;;;;;;;6181337;23;20031;-85
2023/11/23 00:30:30;;;;;;;4.30;3.90;;;;;;;;;;6155829;23;20040;-84
2023/11/23 00:32:57;;;;;;;5.65;4.30;;;;;;;;;;6155451;23;20074;-84
2023/11/23 00:35:25;;;;;;;4.95;4.05;;;;;;;;;;6155594;23;20028;-84
2023/11/23 00:37:52;;;;;;;5.10;4.28;;;;;;;;;;6155605;23;20021;-84
2023/11/23 00:40:20;;;;;;;4.05;3.65;;;;;;;;;;6154895;23;20349;-85
2023/11/23 00:42:47;;;;;;;3.92;3.63;;;;;;;;;;6181645;23;20025;-83
2023/11/23 00:45:15;;;;;;;4.07;3.67;;;;;;;;;;6181586;23;20074;-85
2023/11/23 00:47:42;;;;;;;3.78;3.45;;;;;;;;;;6155727;23;20025;-84
2023/11/23 00:50:10;;;;;;;4.95;4.05;;;;;;;;;;6155755;23;20078;-85
2023/11/23 00:52:37;;;;;;;5.10;4.30;;;;;;;;;;6155232;23;20390;-85
2023/11/23 00:55:05;;;;;;;6.30;4.15;;;;;;;;;;6155318;23;20052;-84
2023/11/23 00:57:34;;;;;;;4.70;4.20;;;;;;;;;;6154764;23;20017;-84
2023/11/23 01:00:05;;;;;;;5.40;4.00;;;;;;;;;;6180984;23;20025;-85
2023/11/23 01:02:33;;;;;;;5.05;4.55;;;;;;;;;;6155559;23;20024;-85
2023/11/23 01:05:00;;;;;;;5.03;4.53;;;;;;;;;;6155092;23;20025;-85
2023/11/23 01:07:27;;;;;;;4.60;3.88;;;;;;;;;;6155405;23;20079;-82
2023/11/23 01:09:54;;;;;;;4.78;4.25;;;;;;;;;;6155463;23;20387;-83
2023/11/23 01:12:22;;;;;;;4.30;3.90;;;;;;;;;;6155534;23;20029;-84
2023/11/23 01:14:49;;;;;;;4.57;4.18;;;;;;;;;;6155313;23;20058;-84
2023/11/23 01:17:16;;;;;;;4.82;4.22;;;;;;;;;;6155702;23;20021;-84
2023/11/23 01:19:43;;;;;;;6.03;4.57;;;;;;;;;;6154859;23;20047;-85
2023/11/23 01:22:11;;;;;;;5.43;4.45;;;;;;;;;;6181048;23;20078;-84
2023/11/23 01:24:38;;;;;;;5.03;4.00;;;;;;;;;;6180490;23;20048;-84
2023/11/23 01:27:05;;;;;;;4.60;3.97;;;;;;;;;;6181417;23;20025;-84
2023/11/23 01:29:33;;;;;;;4.03;3.55;;;;;;;;;;6181653;23;20032;-83
2023/11/23 01:32:00;;;;;;;4.97;4.20;;;;;;;;;;6155418;23;20025;-85
2023/11/23 01:34:27;;;;;;;4.03;3.63;;;;;;;;;;6156346;23;20033;-84
2023/11/23 01:36:55;;;;;;;4.13;3.72;;;;;;;;;;6156421;23;20023;-85
2023/11/23 01:39:22;;;;;;;5.85;4.43;;;;;;;;;;6181253;23;20033;-85
2023/11/23 01:41:49;;;;;;;4.70;3.88;;;;;;;;;;6181269;23;20458;-85
2023/11/23 01:44:17;;;;;;;5.72;4.30;;;;;;;;;;6181227;23;20025;-84
2023/11/23 01:46:44;;;;;;;6.00;4.22;;;;;;;;;;6155939;23;20047;-85
2023/11/23 01:49:12;;;;;;;5.47;4.18;;;;;;;;;;6181160;23;20029;-84
2023/11/23 01:51:39;;;;;;;4.60;4.20;;;;;;;;;;6155380;23;20075;-84
2023/11/23 01:54:07;;;;;;;4.72;4.22;;;;;;;;;;6154872;23;20519;-84
2023/11/23 01:56:34;;;;;;;5.47;4.55;;;;;;;;;;6154577;23;20091;-85
2023/11/23 01:59:01;;;;;;;6.15;4.47;;;;;;;;;;6155289;23;20082;-85
2023/11/23 02:01:28;;;;;;;5.47;4.28;;;;;;;;;;6181300;23;20017;-84
2023/11/23 02:03:56;;;;;;;5.65;4.13;;;;;;;;;;6155100;23;20036;-84
2023/11/23 02:06:23;;;;;;;6.70;4.82;;;;;;;;;;6155613;23;20350;-84
2023/11/23 02:08:50;;;;;;;5.57;4.90;;;;;;;;;;6155491;23;20324;-84
2023/11/23 02:11:18;;;;;;;4.85;4.43;;;;;;;;;;6181270;23;20490;-86
2023/11/23 02:13:45;;;;;;;5.10;4.60;;;;;;;;;;6155087;23;20094;-84
2023/11/23 02:16:14;;;;;;;5.18;4.65;;;;;;;;;;6180964;23;20021;-84
2023/11/23 02:18:41;;;;;;;5.93;4.53;;;;;;;;;;6155101;23;20051;-85
2023/11/23 02:21:08;;;;;;;5.80;5.00;;;;;;;;;;6155103;23;20021;-84
2023/11/23 02:23:36;;;;;;;5.43;4.20;;;;;;;;;;6181504;23;20036;-84
2023/11/23 02:26:03;;;;;;;5.95;4.93;;;;;;;;;;6181072;23;20067;-85
2023/11/23 02:28:32;;;;;;;5.78;4.72;;;;;;;;;;6180957;23;20025;-85
2023/11/23 02:31:01;;;;;;;6.70;5.00;;;;;;;;;;6180783;23;20022;-85
2023/11/23 02:33:28;;;;;;;6.28;4.80;;;;;;;;;;6154966;23;20033;-84
2023/11/23 02:35:55;;;;;;;7.75;5.25;;;;;;;;;;6154594;23;20025;-84
2023/11/23 02:38:23;;;;;;;4.88;4.38;;;;;;;;;;6181488;23;20104;-85
2023/11/23 02:40:50;;;;;;;6.72;4.82;;;;;;;;;;6180894;23;20067;-85
2023/11/23 02:43:17;;;;;;;5.93;4.38;;;;;;;;;;6181040;23;20409;-84
2023/11/23 02:45:45;;;;;;;6.70;5.43;;;;;;;;;;6154782;23;20078;-86
2023/11/23 02:48:13;;;;;;;7.90;4.90;;;;;;;;;;6155397;23;20017;-84
2023/11/23 02:50:40;;;;;;;4.80;4.25;;;;;;;;;;6154140;23;20032;-84
2023/11/23 02:53:17;;;;;;;7.03;5.40;;;;;;;;;;6154850;23;20025;-84
2023/11/23 02:55:44;;;;;;;5.32;4.65;;;;;;;;;;6154796;23;20021;-85
2023/11/23 02:58:11;;;;;;;5.80;4.85;;;;;;;;;;6180890;23;20082;-84
2023/11/23 03:00:38;;;;;;;5.13;4.63;;;;;;;;;;6155224;23;20025;-84
2023/11/23 03:03:06;;;;;;;10.55;5.75;;;;;;;;;;6181052;23;20354;-84
2023/11/23 03:05:33;;;;;;;6.57;5.18;;;;;;;;;;6181071;23;20105;-84
2023/11/23 03:08:00;;;;;;;13.27;5.50;;;;;;;;;;6181366;23;20100;-84
2023/11/23 03:10:27;;;;;;;6.10;4.93;;;;;;;;;;6155244;23;20047;-85
2023/11/23 03:12:55;;;;;;;9.80;5.25;;;;;;;;;;6180783;23;20021;-85
2023/11/23 03:15:22;;;;;;;7.10;5.43;;;;;;;;;;6180199;23;20021;-84
2023/11/23 03:17:49;;;;;;;7.35;5.45;;;;;;;;;;6155195;23;20025;-85
2023/11/23 03:20:17;;;;;;;5.43;4.80;;;;;;;;;;6154709;22;20017;-85
2023/11/23 03:22:44;;;;;;;7.63;4.53;;;;;;;;;;6155121;23;20025;-84
2023/11/23 03:25:11;;;;;;;6.22;4.55;;;;;;;;;;6180286;23;20098;-85
2023/11/23 03:27:38;;;;;;;5.85;4.65;;;;;;;;;;6181147;23;20029;-84
2023/11/23 03:30:06;;;;;;;6.90;4.65;;;;;;;;;;6181247;23;20040;-85
2023/11/23 03:32:34;;;;;;;6.22;4.95;;;;;;;;;;6154811;23;20036;-85
2023/11/23 03:35:01;;;;;;;6.45;4.97;;;;;;;;;;6154250;23;20450;-84
2023/11/23 03:37:28;;;;;;;5.47;4.30;;;;;;;;;;6180832;23;20048;-84
2023/11/23 03:39:57;;;;;;;6.85;4.32;;;;;;;;;;6154815;23;20033;-84
2023/11/23 03:42:25;;;;;;;5.95;5.07;;;;;;;;;;6154586;23;20013;-84
2023/11/23 03:44:52;;;;;;;7.43;4.95;;;;;;;;;;6154244;23;20453;-85
2023/11/23 03:47:19;;;;;;;6.88;5.50;;;;;;;;;;6180801;23;20024;-84
2023/11/23 03:49:46;;;;;;;6.00;4.97;;;;;;;;;;6154752;23;20066;-84
2023/11/23 03:52:14;;;;;;;7.25;5.53;;;;;;;;;;6149033;23;20079;-84
2023/11/23 03:54:41;;;;;;;7.40;5.13;;;;;;;;;;6149289;23;20029;-85
2023/11/23 03:57:08;;;;;;;7.57;5.70;;;;;;;;;;6149661;23;20025;-85
2023/11/23 03:59:36;;;;;;;6.90;5.78;;;;;;;;;;6149804;23;20098;-85
2023/11/23 04:02:03;;;;;;;6.75;5.18;;;;;;;;;;6150842;23;20026;-85
2023/11/23 04:04:31;;;;;;;5.60;5.03;;;;;;;;;;6149334;23;20053;-84
2023/11/23 04:06:58;;;;;;;7.25;5.70;;;;;;;;;;6149332;23;20036;-84
2023/11/23 04:09:25;;;;;;;8.55;6.13;;;;;;;;;;6150819;23;20351;-84
2023/11/23 04:11:53;;;;;;;8.07;5.93;;;;;;;;;;6149540;23;20036;-85
2023/11/23 04:14:20;;;;;;;7.32;5.82;;;;;;;;;;6150194;23;20083;-84
2023/11/23 04:16:47;;;;;;;9.40;6.65;;;;;;;;;;6150925;23;20327;-84
2023/11/23 04:19:15;;;;;;;8.95;5.85;;;;;;;;;;6149020;23;20342;-84
2023/11/23 04:21:42;;;;;;;7.55;6.47;;;;;;;;;;6148724;23;20067;-84
2023/11/23 04:24:09;;;;;;;7.93;6.20;;;;;;;;;;6148968;23;20037;-84
2023/11/23 04:26:36;;;;;;;8.82;6.82;;;;;;;;;;6150154;23;20022;-84
2023/11/23 04:29:04;;;;;;;7.88;6.55;;;;;;;;;;6149090;23;20392;-85
2023/11/23 04:31:31;;;;;;;10.88;7.32;;;;;;;;;;6150627;23;20318;-84
2023/11/23 04:33:58;;;;;;;9.85;6.78;;;;;;;;;;6148733;23;20440;-84
2023/11/23 04:36:28;;;;;;;8.38;6.70;;;;;;;;;;6149471;23;20409;-84
2023/11/23 04:38:55;;;;;;;9.20;7.10;;;;;;;;;;6149823;23;20022;-83
2023/11/23 04:41:23;;;;;;;10.63;7.45;;;;;;;;;;6153048;23;20024;-84
2023/11/23 04:43:50;;;;;;;9.20;6.97;;;;;;;;;;6150084;23;20030;-84
2023/11/23 04:46:17;;;;;;;11.65;7.65;;;;;;;;;;6150322;23;20025;-83
2023/11/23 04:48:44;;;;;;;13.88;7.57;;;;;;;;;;6149523;23;20030;-84
2023/11/23 04:51:12;;;;;;;9.70;7.07;;;;;;;;;;6149275;23;20022;-84
2023/11/23 04:53:39;;;;;;;9.15;7.03;;;;;;;;;;6154109;23;20025;-85
2023/11/23 04:56:06;;;;;;;9.23;6.78;;;;;;;;;;6154283;23;20096;-84
2023/11/23 04:58:33;;;;;;;8.32;6.40;;;;;;;;;;6154434;23;20025;-84
2023/11/23 05:01:01;;;;;;;9.43;6.75;;;;;;;;;;6153944;23;20029;-84
2023/11/23 05:03:28;;;;;;;10.02;6.25;;;;;;;;;;6180700;23;20075;-84
2023/11/23 05:05:55;;;;;;;8.38;6.63;;;;;;;;;;6153562;23;20511;-85
2023/11/23 05:08:23;;;;;;;10.15;6.50;;;;;;;;;;6154440;23;20071;-84
2023/11/23 05:10:50;;;;;;;7.30;6.22;;;;;;;;;;6154214;23;20025;-84
2023/11/23 05:13:17;;;;;;;7.35;5.90;;;;;;;;;;6154566;23;20420;-85
2023/11/23 05:15:45;;;;;;;8.75;5.75;;;;;;;;;;6155648;23;20028;-85
2023/11/23 05:18:13;;;;;;;10.20;6.40;;;;;;;;;;6156038;23;20400;-84
2023/11/23 05:20:40;;;;;;;13.57;7.07;;;;;;;;;;6181930;23;20033;-85
2023/11/23 05:23:07;;;;;;;14.40;7.43;;;;;;;;;;6181914;23;20028;-85
2023/11/23 05:25:34;;;;;;;7.13;6.20;;;;;;;;;;6154852;23;20025;-84
2023/11/23 05:28:02;;;;;;;9.88;6.28;;;;;;;;;;6181398;23;20094;-84
2023/11/23 05:30:29;;;;;;;7.88;5.90;;;;;;;;;;6155324;23;20813;-84
2023/11/23 05:32:56;;;;;;;18.23;6.43;;;;;;;;;;6181565;23;20021;-85
2023/11/23 05:35:23;;;;;;;7.35;6.20;;;;;;;;;;6155469;23;20338;-84
2023/11/23 05:37:51;;;;;;;10.82;6.15;;;;;;;;;;6155810;23;20078;-85
2023/11/23 05:40:18;;;;;;;11.52;6.63;;;;;;;;;;6155776;23;20021;-85
2023/11/23 05:42:46;;;;;;;7.93;5.50;;;;;;;;;;6155331;23;20524;-84
2023/11/23 05:45:27;;;;;;;8.43;5.97;;;;;;;;;;6181532;23;20096;-83
2023/11/23 05:47:55;;;;;;;12.43;6.35;;;;;;;;;;6155987;23;20458;-85
2023/11/23 05:50:22;;;;;;;9.77;6.15;;;;;;;;;;6181562;23;20115;-84
2023/11/23 05:52:49;;;;;;;8.20;6.38;;;;;;;;;;6155189;23;20025;-84
2023/11/23 05:55:16;;;;;;;9.98;6.45;;;;;;;;;;6155613;23;20028;-84
2023/11/23 05:57:44;;;;;;;10.30;6.65;;;;;;;;;;6156059;23;20021;-85
2023/11/23 06:00:11;;;;;;;10.45;7.07;;;;;;;;;;6155690;23;20319;-85
2023/11/23 06:02:41;;;;;;;12.30;7.78;;;;;;;;;;6182018;23;20017;-85
2023/11/23 06:05:08;;;;;;;9.65;7.57;;;;;;;;;;6155570;23;20025;-85
2023/11/23 06:07:36;;;;;;;11.10;7.28;;;;;;;;;;6181059;23;20319;-85
2023/11/23 06:10:05;;;;;;;11.88;7.80;;;;;;;;;;6181272;23;20531;-85
2023/11/23 06:12:32;;;;;;;13.50;7.60;;;;;;;;;;6156179;23;20018;-85
2023/11/23 06:15:01;;;;;;;11.40;7.70;;;;;;;;;;6181413;23;20025;-85
2023/11/23 06:17:29;;;;;;;13.95;8.48;;;;;;;;;;6155312;23;20021;-85
2023/11/23 06:19:56;;;;;;;10.77;7.38;;;;;;;;;;6155035;23;20031;-85
2023/11/23 06:22:23;;;;;;;9.93;6.28;;;;;;;;;;6155372;23;20526;-85
2023/11/23 06:24:51;;;;;;;40.03;10.25;;;;;;;;;;6154898;23;20027;-84
2023/11/23 06:27:18;;;;;;;13.23;7.68;;;;;;;;;;6155495;23;20082;-84
2023/11/23 06:29:46;;;;;;;10.23;7.40;;;;;;;;;;6181005;23;20028;-85
2023/11/23 06:32:13;;;;;;;10.57;6.78;;;;;;;;;;6180943;23;20101;-83
2023/11/23 06:34:41;;;;;;;9.55;7.15;;;;;;;;;;6154542;23;20025;-83
2023/11/23 06:37:08;;;;;;;9.25;6.65;;;;;;;;;;6181390;23;20036;-84
2023/11/23 06:39:38;;;;;;;11.45;6.88;;;;;;;;;;6181218;23;20025;-85
2023/11/23 06:42:06;;;;;;;8.88;7.38;;;;;;;;;;6154975;23;20020;-84
2023/11/23 06:44:33;;;;;;;13.15;8.80;;;;;;;;;;6154890;23;20025;-85
2023/11/23 06:47:00;;;;;;;10.77;7.38;;;;;;;;;;6154554;23;20380;-84
2023/11/23 06:49:27;;;;;;;13.63;7.95;;;;;;;;;;6154571;23;20021;-83
2023/11/23 06:51:55;;;;;;;9.63;7.70;;;;;;;;;;6154833;23;20085;-84
2023/11/23 06:54:22;;;;;;;10.70;7.78;;;;;;;;;;6154436;23;20052;-86
2023/11/23 06:56:49;;;;;;;10.32;7.22;;;;;;;;;;6181564;23;20029;-84
2023/11/23 06:59:18;;;;;;;7.97;6.55;;;;;;;;;;6154896;23;20032;-84
2023/11/23 07:01:45;;;;;;;12.50;7.28;;;;;;;;;;6154886;23;20021;-84
2023/11/23 07:04:13;;;;;;;12.52;8.13;;;;;;;;;;6155219;23;20021;-84
2023/11/23 07:06:41;;;;;;;12.02;7.15;;;;;;;;;;6155203;23;20021;-84
2023/11/23 07:09:10;;;;;;;14.18;7.28;;;;;;;;;;6181301;23;20045;-85
2023/11/23 07:11:38;;;;;;;8.45;6.35;;;;;;;;;;6155214;23;20017;-85
2023/11/23 07:14:06;;;;;;;9.18;7.00;;;;;;;;;;6154060;23;20262;-84
2023/11/23 07:16:33;;;;;;;13.38;7.70;;;;;;;;;;6180815;23;20051;-84
2023/11/23 07:19:01;;;;;;;8.05;6.68;;;;;;;;;;6180548;23;20021;-85
2023/11/23 07:21:28;;;;;;;8.38;7.43;;;;;;;;;;6155295;23;20025;-84
2023/11/23 07:23:56;;;;;;;9.15;7.63;;;;;;;;;;6180809;23;20017;-84
2023/11/23 07:26:24;;;;;;;12.38;6.97;;;;;;;;;;6154848;23;20021;-84
2023/11/23 07:28:51;;;;;;;9.43;7.57;;;;;;;;;;6154648;23;20021;-84
2023/11/23 07:31:18;;;;;;;12.35;8.15;;;;;;;;;;6155354;23;20021;-84
2023/11/23 07:33:46;;;;;;;9.68;7.15;;;;;;;;;;6154788;23;20342;-84
2023/11/23 07:36:13;;;;;;;9.07;7.03;;;;;;;;;;6154457;23;20028;-84
2023/11/23 07:38:44;;;;;;;11.40;6.90;;;;;;;;;;6180979;23;20080;-84
2023/11/23 07:41:12;;;;;;;9.57;7.10;;;;;;;;;;6180590;23;20029;-84
2023/11/23 07:43:39;;;;;;;9.63;7.50;;;;;;;;;;6154683;23;20438;-84
2023/11/23 07:46:06;;;;;;;11.35;7.75;;;;;;;;;;6154880;23;20024;-83
2023/11/23 07:48:34;;;;;;;9.82;7.30;;;;;;;;;;6181782;23;20017;-85
2023/11/23 07:51:01;;;;;;;10.68;7.82;;;;;;;;;;6180864;23;20021;-84
2023/11/23 07:53:30;;;;;;;9.85;6.65;;;;;;;;;;6180387;23;20047;-85
2023/11/23 07:55:58;;;;;;;11.02;8.45;;;;;;;;;;6180475;23;20393;-84
2023/11/23 07:58:25;;;;;;;10.13;7.65;;;;;;;;;;6180525;23;20078;-84
2023/11/23 08:00:52;;;;;;;12.15;7.35;;;;;;;;;;6154437;23;20021;-84
2023/11/23 08:03:21;;;;;;;9.63;7.78;;;;;;;;;;6180933;23;20099;-85
2023/11/23 08:05:48;;;;;;;9.23;7.20;;;;;;;;;;6154178;23;20468;-84
2023/11/23 08:08:16;;;;;;;10.15;6.45;;;;;;;;;;6180543;23;20025;-85
2023/11/23 08:10:43;;;;;;;13.35;7.28;;;;;;;;;;6180276;23;20021;-84
2023/11/23 08:13:10;;;;;;;9.50;7.18;;;;;;;;;;6154971;23;20021;-84
2023/11/23 08:15:37;;;;;;;8.68;6.93;;;;;;;;;;6154437;23;20028;-85
2023/11/23 08:18:05;;;;;;;8.77;6.55;;;;;;;;;;6180604;23;20017;-84
2023/11/23 08:20:36;;;;;;;11.93;8.23;;;;;;;;;;6154938;23;20104;-84
2023/11/23 08:23:05;;;;;;;13.20;7.90;;;;;;;;;;6154456;23;20078;-83
2023/11/23 08:25:32;;;;;;;9.85;7.50;;;;;;;;;;6180301;23;20346;-85
2023/11/23 08:28:02;;;;;;;10.98;8.30;;;;;;;;;;6154388;23;20029;-84
2023/11/23 08:30:29;;;;;;;8.43;7.30;;;;;;;;;;6154591;23;20063;-85
2023/11/23 08:32:58;;;;;;;11.90;7.85;;;;;;;;;;6154096;23;20025;-84
2023/11/23 08:35:28;;;;;;;11.13;7.72;;;;;;;;;;6153898;23;20032;-85
2023/11/23 08:37:55;;;;;;;10.27;7.50;;;;;;;;;;6180312;23;20029;-84
2023/11/23 08:40:22;;;;;;;9.48;7.68;;;;;;;;;;6180199;23;20098;-84
2023/11/23 08:42:49;;;;;;;10.85;7.47;;;;;;;;;;6180052;23;20025;-84
2023/11/23 08:45:17;;;;;;;9.60;6.70;;;;;;;;;;6180049;23;20075;-83
2023/11/23 08:47:44;;;;;;;13.05;8.45;;;;;;;;;;6154780;23;20017;-84
2023/11/23 08:50:13;;;;;;;12.23;8.30;;;;;;;;;;6181216;23;20051;-83
2023/11/23 08:52:40;;;;;;;11.63;7.53;;;;;;;;;;6154884;23;20458;-84
2023/11/23 08:55:11;;;;;;;12.95;8.00;;;;;;;;;;6155377;23;20315;-82
2023/11/23 08:57:40;;;;;;;10.82;8.88;;;;;;;;;;6181876;23;20025;-85
2023/11/23 09:00:11;;;;;;;10.20;8.02;;;;;;;;;;6180843;23;20071;-83
2023/11/23 09:02:38;;;;;;;11.43;8.20;;;;;;;;;;6181384;23;20021;-85
2023/11/23 09:05:09;;;;;;;11.20;8.15;;;;;;;;;;6155365;23;20047;-85
2023/11/23 09:07:37;;;;;;;11.70;8.55;;;;;;;;;;6155498;23;20021;-84
2023/11/23 09:10:05;;;;;;;9.13;7.68;;;;;;;;;;6155835;23;20017;-84
2023/11/23 09:12:33;;;;;;;10.65;7.80;;;;;;;;;;6181580;23;20029;-85
2023/11/23 09:15:00;;;;;;;11.25;7.38;;;;;;;;;;6154918;23;20377;-84
2023/11/23 09:17:28;;;;;;;9.23;7.10;;;;;;;;;;6181632;23;20045;-84
2023/11/23 09:19:55;;;;;;;13.32;7.65;;;;;;;;;;6181752;23;20021;-84
2023/11/23 09:22:24;;;;;;;8.13;6.88;;;;;;;;;;6155886;23;20017;-84
2023/11/23 09:24:52;;;;;;;10.32;7.72;;;;;;;;;;6155501;23;20029;-84
2023/11/23 09:27:19;;;;;;;11.98;7.72;;;;;;;;;;6155748;23;20021;-84
2023/11/23 09:29:49;;;;;;;9.45;7.93;;;;;;;;;;6155817;23;20303;-84
2023/11/23 09:32:17;;;;;;;9.93;7.82;;;;;;;;;;6155499;23;20025;-84
2023/11/23 09:34:44;;;;;;;9.40;7.63;;;;;;;;;;6181625;23;20017;-84
2023/11/23 09:37:11;;;;;;;10.15;7.22;;;;;;;;;;6181916;23;20089;-85
2023/11/23 09:39:39;;;;;;;11.55;7.82;;;;;;;;;;6155851;23;20342;-83
2023/11/23 09:42:08;;;;;;;11.00;7.65;;;;;;;;;;6154995;23;20029;-84
2023/11/23 09:44:36;;;;;;;10.45;7.78;;;;;;;;;;6154738;23;20028;-84
2023/11/23 09:47:05;;;;;;;8.32;7.30;;;;;;;;;;6155613;23;20025;-84
2023/11/23 09:49:32;;;;;;;8.57;7.65;;;;;;;;;;6181783;23;20025;-85
2023/11/23 09:52:02;;;;;;;10.40;7.85;;;;;;;;;;6155195;23;20029;-84
2023/11/23 09:54:34;;;;;;;10.30;8.20;;;;;;;;;;6154792;23;20021;-86
2023/11/23 09:57:02;;;;;;;10.05;8.52;;;;;;;;;;6155465;23;20021;-84
2023/11/23 09:59:30;;;;;;;10.73;8.27;;;;;;;;;;6155261;23;20025;-84
2023/11/23 10:02:03;;;;;;;11.23;8.15;;;;;;;;;;6155524;23;20384;-84
2023/11/23 10:04:32;;;;;;;11.13;8.40;;;;;;;;;;6181480;23;20071;-84
2023/11/23 10:07:03;;;;;;;12.00;10.15;;;;;;;;;;6181362;23;20119;-84
2023/11/23 10:09:35;;;;;;;12.50;8.45;;;;;;;;;;6181950;23;20540;-84
2023/11/23 10:12:03;;;;;;;15.48;8.35;;;;;;;;;;6155872;23;20086;-84
2023/11/23 10:14:30;;;;;;;19.38;8.80;;;;;;;;;;6155582;23;20048;-84
2023/11/23 10:16:58;;;;;;;10.77;8.32;;;;;;;;;;6155496;23;20082;-84
2023/11/23 10:19:25;;;;;;;12.73;8.55;;;;;;;;;;6155233;23;20021;-84
2023/11/23 10:21:58;;;;;;;14.38;8.10;;;;;;;;;;6181402;23;20025;-84
2023/11/23 10:24:27;;;;;;;12.50;8.15;;;;;;;;;;6181376;23;20017;-85
2023/11/23 10:26:55;;;;;;;11.07;8.60;;;;;;;;;;6181638;23;20044;-85
2023/11/23 10:29:29;;;;;;;12.50;8.02;;;;;;;;;;6155878;23;20401;-85
2023/11/23 10:32:00;;;;;;;12.73;7.78;;;;;;;;;;6181479;23;20032;-85
2023/11/23 10:34:31;;;;;;;16.85;8.65;;;;;;;;;;6154846;23;20025;-85
2023/11/23 10:36:58;;;;;;;8.60;7.32;;;;;;;;;;6155908;23;20021;-85
2023/11/23 10:39:27;;;;;;;11.35;7.65;;;;;;;;;;6155803;23;20021;-83
2023/11/23 10:41:55;;;;;;;9.80;7.88;;;;;;;;;;6155614;23;20071;-85
2023/11/23 10:44:23;;;;;;;10.77;7.38;;;;;;;;;;6155088;23;20025;-84
2023/11/23 10:46:53;;;;;;;37.80;8.70;;;;;;;;;;6181059;23;20038;-84
2023/11/23 10:49:21;;;;;;;10.20;7.55;;;;;;;;;;6181304;23;20338;-84
2023/11/23 10:51:49;;;;;;;9.27;7.82;;;;;;;;;;6155482;23;20025;-85
2023/11/23 10:54:16;;;;;;;9.10;7.57;;;;;;;;;;6157309;23;20024;-84
2023/11/23 10:56:44;;;;;;;10.95;8.32;;;;;;;;;;6160503;23;20100;-84
2023/11/23 10:59:17;;;;;;;10.40;8.63;;;;;;;;;;6157688;23;20354;-84
2023/11/23 11:01:45;;;;;;;9.30;7.90;;;;;;;;;;6181508;23;20025;-85
2023/11/23 11:04:13;;;;;;;13.52;9.27;;;;;;;;;;6181339;23;20353;-85
2023/11/23 11:06:41;;;;;;;8.85;7.65;;;;;;;;;;6181616;23;20108;-85
2023/11/23 11:09:15;;;;;;;15.48;8.25;;;;;;;;;;6155788;23;20021;-85
2023/11/23 11:11:47;;;;;;;10.10;7.43;;;;;;;;;;6154485;23;20384;-85
2023/11/23 11:14:16;;;;;;;12.80;7.32;;;;;;;;;;6155245;23;20028;-85
2023/11/23 11:16:43;;;;;;;11.93;7.18;;;;;;;;;;6155611;23;20450;-85
2023/11/23 11:19:13;;;;;;;18.90;8.27;;;;;;;;;;6155450;23;20029;-84
2023/11/23 11:21:43;;;;;;;8.32;7.25;;;;;;;;;;6155264;23;20046;-85
2023/11/23 11:24:18;;;;;;;17.40;6.95;;;;;;;;;;6180608;23;20473;-85
2023/11/23 11:26:49;;;;;;;11.48;6.97;;;;;;;;;;6180620;23;20029;-84
2023/11/23 11:29:17;;;;;;;8.98;6.75;;;;;;;;;;6181642;23;20029;-85
2023/11/23 11:31:48;;;;;;;9.02;6.80;;;;;;;;;;6181219;23;20021;-84
2023/11/23 11:34:20;;;;;;;9.05;7.15;;;;;;;;;;6155177;23;20025;-84
2023/11/23 11:36:51;;;;;;;12.48;6.65;;;;;;;;;;6154545;23;20027;-84
2023/11/23 11:39:18;;;;;;;18.35;8.43;;;;;;;;;;6181422;23;20082;-84
2023/11/23 11:41:47;;;;;;;9.93;7.45;;;;;;;;;;6155251;23;20090;-85
2023/11/23 11:44:15;;;;;;;11.55;7.90;;;;;;;;;;6155132;23;20040;-83
2023/11/23 11:46:43;;;;;;;15.80;7.68;;;;;;;;;;6181070;23;20388;-85
2023/11/23 11:49:12;;;;;;;11.02;7.55;;;;;;;;;;6154345;23;20021;-83
2023/11/23 11:51:40;;;;;;;18.75;8.45;;;;;;;;;;6154744;23;20029;-84
2023/11/23 11:54:09;;;;;;;12.63;8.02;;;;;;;;;;6154411;22;20036;-84
2023/11/23 11:56:37;;;;;;;10.35;7.65;;;;;;;;;;6155076;23;20378;-84
2023/11/23 11:59:06;;;;;;;14.13;8.60;;;;;;;;;;6180550;23;20032;-84
2023/11/23 12:01:34;;;;;;;12.95;8.45;;;;;;;;;;6154585;23;20037;-84
2023/11/23 12:04:01;;;;;;;18.05;9.27;;;;;;;;;;6154485;23;20021;-84
2023/11/23 12:06:29;;;;;;;11.68;8.32;;;;;;;;;;6154956;23;20028;-83
2023/11/23 12:09:00;;;;;;;11.15;7.90;;;;;;;;;;6154462;23;20454;-84
2023/11/23 12:11:28;;;;;;;12.32;8.05;;;;;;;;;;6154998;23;20449;-84
2023/11/23 12:13:59;;;;;;;11.07;7.75;;;;;;;;;;6154647;22;20017;-83
2023/11/23 12:16:33;;;;;;;12.05;8.77;;;;;;;;;;6154487;23;20513;-83
2023/11/23 12:19:01;;;;;;;12.70;8.68;;;;;;;;;;6154822;23;20025;-84
2023/11/23 12:21:28;;;;;;;11.13;8.10;;;;;;;;;;6154208;23;20319;-84
2023/11/23 12:24:00;;;;;;;11.98;7.90;;;;;;;;;;6181851;23;20025;-83
2023/11/23 12:26:27;;;;;;;11.82;8.38;;;;;;;;;;6156026;23;20025;-84
2023/11/23 12:28:54;;;;;;;9.85;8.10;;;;;;;;;;6155456;23;20388;-83
2023/11/23 12:31:22;;;;;;;12.75;8.88;;;;;;;;;;6155666;23;20028;-83
2023/11/23 12:33:49;;;;;;;10.10;7.72;;;;;;;;;;6155660;23;20021;-83
2023/11/23 12:36:16;;;;;;;10.95;8.00;;;;;;;;;;6155819;23;20056;-84
2023/11/23 12:38:44;;;;;;;9.45;7.57;;;;;;;;;;6155815;23;20100;-84
2023/11/23 12:41:11;;;;;;;10.98;8.30;;;;;;;;;;6155412;23;20025;-82
2023/11/23 12:43:39;;;;;;;9.50;8.48;;;;;;;;;;6155042;23;20024;-84
2023/11/23 12:46:07;;;;;;;10.27;7.80;;;;;;;;;;6155195;23;20029;-84
2023/11/23 12:48:34;;;;;;;18.13;8.00;;;;;;;;;;6155386;23;20025;-84
2023/11/23 12:51:01;;;;;;;10.05;7.78;;;;;;;;;;6155190;23;20028;-84
2023/11/23 12:53:29;;;;;;;11.05;7.88;;;;;;;;;;6181201;23;20028;-84
2023/11/23 12:55:57;;;;;;;7.85;7.05;;;;;;;;;;6180606;23;20492;-84
2023/11/23 12:58:24;;;;;;;10.27;7.38;;;;;;;;;;6155746;23;20021;-85
2023/11/23 13:00:52;;;;;;;10.90;7.28;;;;;;;;;;6155476;23;20430;-85
2023/11/23 13:03:21;;;;;;;8.05;6.97;;;;;;;;;;6155317;23;20025;-84
2023/11/23 13:05:52;;;;;;;9.65;6.75;;;;;;;;;;6154854;23;20442;-84
2023/11/23 13:08:20;;;;;;;9.40;6.72;;;;;;;;;;6155356;23;20025;-83
2023/11/23 13:10:47;;;;;;;9.15;6.75;;;;;;;;;;6180993;23;20029;-85
2023/11/23 13:13:15;;;;;;;8.32;6.25;;;;;;;;;;6155320;23;20078;-84
2023/11/23 13:15:42;;;;;;;9.85;6.40;;;;;;;;;;6155372;23;20021;-85
2023/11/23 13:18:10;;;;;;;12.77;6.72;;;;;;;;;;6155429;23;20480;-84
2023/11/23 13:20:37;;;;;;;9.00;6.47;;;;;;;;;;6181004;23;20028;-83
2023/11/23 13:23:06;;;;;;;16.52;5.43;;;;;;;;;;6155487;23;20025;-84
2023/11/23 13:25:33;;;;;;;6.75;5.50;;;;;;;;;;6155338;23;20066;-85
2023/11/23 13:28:02;;;;;;;7.40;5.80;;;;;;;;;;6155126;23;20094;-85
2023/11/23 13:30:31;;;;;;;7.45;4.55;;;;;;;;;;6181752;23;20021;-85
2023/11/23 13:32:59;;;;;;;5.75;4.82;;;;;;;;;;6155313;23;20025;-84
2023/11/23 13:35:27;;;;;;;5.85;4.28;;;;;;;;;;6154493;23;20103;-84
2023/11/23 13:37:54;;;;;;;6.55;4.68;;;;;;;;;;6155386;23;20040;-85
2023/11/23 13:40:22;;;;;;;6.88;4.22;;;;;;;;;;6181102;23;20024;-85
2023/11/23 13:42:50;;;;;;;4.95;4.38;;;;;;;;;;6181375;23;20025;-86
2023/11/23 13:45:19;;;;;;;6.55;4.47;;;;;;;;;;6181368;23;20029;-85
2023/11/23 13:47:50;;;;;;;4.53;3.80;;;;;;;;;;6156149;23;20021;-84
2023/11/23 13:50:18;;;;;;;5.90;3.83;;;;;;;;;;6181212;23;20025;-83
2023/11/23 13:52:46;;;;;;;6.20;3.35;;;;;;;;;;6180956;23;20469;-84
2023/11/23 13:55:13;;;;;;;3.13;2.85;;;;;;;;;;6154998;23;20029;-83
2023/11/23 13:57:41;;;;;;;3.38;3.10;;;;;;;;;;6155124;23;20465;-82
2023/11/23 14:00:14;;;;;;;3.88;3.50;;;;;;;;;;6156059;23;20096;-82
2023/11/23 14:02:42;;;;;;;6.80;3.60;;;;;;;;;;6156956;23;20035;-85
2023/11/23 14:05:09;;;;;;;3.55;3.25;;;;;;;;;;6156264;23;20020;-84
2023/11/23 14:07:38;;;;;;;5.90;3.50;;;;;;;;;;6155638;23;20029;-84
2023/11/23 14:10:06;;;;;;;6.07;3.63;;;;;;;;;;6155307;23;20021;-84
2023/11/23 14:12:34;;;;;;;3.50;3.20;;;;;;;;;;6155492;23;20376;-85
2023/11/23 14:15:03;;;;;;;22.08;4.25;;;;;;;;;;6180208;23;20047;-84
2023/11/23 14:17:30;;;;;;;4.80;3.90;;;;;;;;;;6155575;23;20027;-84
2023/11/23 14:20:00;;;;;;;4.15;3.83;;;;;;;;;;6155577;23;20074;-85
2023/11/23 14:22:33;;;;;;;3.88;3.58;;;;;;;;;;6154853;23;20025;-84
2023/11/23 14:25:02;;;;;;;4.18;3.70;;;;;;;;;;6154519;22;20078;-85
2023/11/23 14:27:29;;;;;;;3.28;3.08;;;;;;;;;;6154682;23;20025;-83
2023/11/23 14:29:57;;;;;;;3.70;3.40;;;;;;;;;;6155259;23;20100;-85
2023/11/23 14:32:24;;;;;;;9.15;3.72;;;;;;;;;;6155652;23;20278;-85
2023/11/23 14:34:51;;;;;;;15.57;3.67;;;;;;;;;;6155014;23;20076;-84
2023/11/23 14:37:20;;;;;;;7.05;4.05;;;;;;;;;;6155227;23;20458;-85
2023/11/23 14:39:48;;;;;;;4.75;3.22;;;;;;;;;;6155087;23;20024;-85
2023/11/23 14:42:16;;;;;;;5.95;3.25;;;;;;;;;;6155016;23;20021;-84